sensor_id;sensor_type;location;lat;lon;timestamp;temperature;humidity
30174;DHT22;16985;50.814;8.530;2023-03-01T00:01:36;-1.30;92.10
30174;DHT22;16985;50.814;8.530;2023-03-01T00:04:02;-1.30;92.10
30174;DHT22;16985;50.814;8.530;2023-03-01T00:06:34;-1.30;92.20
30174;DHT22;16985;50.814;8.530;2023-03-01T00:09:00;-1.30;92.10
30174;DHT22;16985;50.814;8.530;2023-03-01T00:11:28;-1.30;92.10
30174;DHT22;16985;50.814;8.530;2023-03-01T00:13:58;-1.30;92.20
30174;DHT22;16985;50.814;8.530;2023-03-01T00:16:38;-1.30;92.10
30174;DHT22;16985;50.814;8.530;2023-03-01T00:19:07;-1.30;92.00
30174;DHT22;16985;50.814;8.530;2023-03-01T00:21:34;-1.30;92.10
30174;DHT22;16985;50.814;8.530;2023-03-01T00:24:01;-1.40;92.20
30174;DHT22;16985;50.814;8.530;2023-03-01T00:26:27;-1.40;92.40
30174;DHT22;16985;50.814;8.530;2023-03-01T00:28:54;-1.40;92.50
30174;DHT22;16985;50.814;8.530;2023-03-01T00:31:25;-1.50;92.80
30174;DHT22;16985;50.814;8.530;2023-03-01T00:33:56;-1.50;92.90
30174;DHT22;16985;50.814;8.530;2023-03-01T00:36:30;-1.50;93.00
30174;DHT22;16985;50.814;8.530;2023-03-01T00:38:58;-1.60;93.10
30174;DHT22;16985;50.814;8.530;2023-03-01T00:41:26;-1.60;93.20
30174;DHT22;16985;50.814;8.530;2023-03-01T00:43:53;-1.60;93.30
30174;DHT22;16985;50.814;8.530;2023-03-01T00:46:22;-1.60;93.50
30174;DHT22;16985;50.814;8.530;2023-03-01T00:48:49;-1.60;93.20
30174;DHT22;16985;50.814;8.530;2023-03-01T00:51:21;-1.70;93.40
30174;DHT22;16985;50.814;8.530;2023-03-01T00:53:51;-1.70;93.60
30174;DHT22;16985;50.814;8.530;2023-03-01T00:56:17;-1.70;93.60
30174;DHT22;16985;50.814;8.530;2023-03-01T00:58:43;-1.70;93.70
30174;DHT22;16985;50.814;8.530;2023-03-01T01:01:14;-1.70;94.00
30174;DHT22;16985;50.814;8.530;2023-03-01T01:03:49;-1.70;94.10
30174;DHT22;16985;50.814;8.530;2023-03-01T01:06:28;-1.80;94.20
30174;DHT22;16985;50.814;8.530;2023-03-01T01:09:00;-1.80;94.30
30174;DHT22;16985;50.814;8.530;2023-03-01T01:11:28;-1.80;94.40
30174;DHT22;16985;50.814;8.530;2023-03-01T01:13:55;-1.80;94.50
30174;DHT22;16985;50.814;8.530;2023-03-01T01:16:23;-1.90;94.70
30174;DHT22;16985;50.814;8.530;2023-03-01T01:18:50;-1.90;94.80
30174;DHT22;16985;50.814;8.530;2023-03-01T01:21:19;-1.90;94.90
30174;DHT22;16985;50.814;8.530;2023-03-01T01:23:47;-1.90;94.80
30174;DHT22;16985;50.814;8.530;2023-03-01T01:26:28;-1.90;94.90
30174;DHT22;16985;50.814;8.530;2023-03-01T01:28:56;-2.00;95.00
30174;DHT22;16985;50.814;8.530;2023-03-01T01:31:23;-2.00;95.20
30174;DHT22;16985;50.814;8.530;2023-03-01T01:33:50;-2.00;95.30
30174;DHT22;16985;50.814;8.530;2023-03-01T01:36:20;-2.00;95.40
30174;DHT22;16985;50.814;8.530;2023-03-01T01:38:46;-2.00;95.40
30174;DHT22;16985;50.814;8.530;2023-03-01T01:41:13;-2.00;95.50
30174;DHT22;16985;50.814;8.530;2023-03-01T01:44:10;-2.00;95.40
30174;DHT22;16985;50.814;8.530;2023-03-01T01:46:41;-2.00;95.40
30174;DHT22;16985;50.814;8.530;2023-03-01T01:52:29;-2.10;95.60
30174;DHT22;16985;50.814;8.530;2023-03-01T01:55:25;-2.10;96.00
30174;DHT22;16985;50.814;8.530;2023-03-01T01:57:56;-2.10;95.70
30174;DHT22;16985;50.814;8.530;2023-03-01T02:00:28;-2.10;95.50
30174;DHT22;16985;50.814;8.530;2023-03-01T02:03:02;-2.20;95.60
30174;DHT22;16985;50.814;8.530;2023-03-01T02:08:32;-2.20;95.40
30174;DHT22;16985;50.814;8.530;2023-03-01T02:11:01;-2.20;95.40
30174;DHT22;16985;50.814;8.530;2023-03-01T02:13:30;-2.20;95.40
30174;DHT22;16985;50.814;8.530;2023-03-01T02:15:57;-2.20;95.40
30174;DHT22;16985;50.814;8.530;2023-03-01T02:18:23;-2.20;95.40
30174;DHT22;16985;50.814;8.530;2023-03-01T02:23:37;-2.20;95.60
30174;DHT22;16985;50.814;8.530;2023-03-01T02:29:00;-2.30;95.80
30174;DHT22;16985;50.814;8.530;2023-03-01T02:31:26;-2.30;95.90
30174;DHT22;16985;50.814;8.530;2023-03-01T02:34:16;-2.30;96.00
30174;DHT22;16985;50.814;8.530;2023-03-01T02:36:47;-2.30;96.20
30174;DHT22;16985;50.814;8.530;2023-03-01T02:39:21;-2.40;96.40
30174;DHT22;16985;50.814;8.530;2023-03-01T02:41:53;-2.40;96.60
30174;DHT22;16985;50.814;8.530;2023-03-01T02:44:21;-2.40;96.90
30174;DHT22;16985;50.814;8.530;2023-03-01T02:46:49;-2.40;97.00
30174;DHT22;16985;50.814;8.530;2023-03-01T02:49:23;-2.40;97.10
30174;DHT22;16985;50.814;8.530;2023-03-01T02:54:38;-2.40;96.60
30174;DHT22;16985;50.814;8.530;2023-03-01T02:57:06;-2.50;96.40
30174;DHT22;16985;50.814;8.530;2023-03-01T02:59:35;-2.50;96.60
30174;DHT22;16985;50.814;8.530;2023-03-01T03:02:07;-2.40;96.80
30174;DHT22;16985;50.814;8.530;2023-03-01T03:04:34;-2.50;97.10
30174;DHT22;16985;50.814;8.530;2023-03-01T03:06:59;-2.50;97.20
30174;DHT22;16985;50.814;8.530;2023-03-01T03:09:25;-2.50;97.30
30174;DHT22;16985;50.814;8.530;2023-03-01T03:11:51;-2.50;97.50
30174;DHT22;16985;50.814;8.530;2023-03-01T03:14:17;-2.50;97.60
30174;DHT22;16985;50.814;8.530;2023-03-01T03:16:48;-2.50;97.50
30174;DHT22;16985;50.814;8.530;2023-03-01T03:19:15;-2.50;97.70
30174;DHT22;16985;50.814;8.530;2023-03-01T03:21:42;-2.60;97.60
30174;DHT22;16985;50.814;8.530;2023-03-01T03:24:08;-2.60;97.80
30174;DHT22;16985;50.814;8.530;2023-03-01T03:26:34;-2.60;98.00
30174;DHT22;16985;50.814;8.530;2023-03-01T03:29:00;-2.60;98.00
30174;DHT22;16985;50.814;8.530;2023-03-01T03:31:26;-2.70;98.20
30174;DHT22;16985;50.814;8.530;2023-03-01T03:33:52;-2.70;98.20
30174;DHT22;16985;50.814;8.530;2023-03-01T03:36:23;-2.70;98.20
30174;DHT22;16985;50.814;8.530;2023-03-01T03:38:49;-2.70;98.40
30174;DHT22;16985;50.814;8.530;2023-03-01T03:41:16;-2.70;98.00
30174;DHT22;16985;50.814;8.530;2023-03-01T03:43:42;-2.70;98.20
30174;DHT22;16985;50.814;8.530;2023-03-01T03:46:10;-2.70;98.60
30174;DHT22;16985;50.814;8.530;2023-03-01T03:48:40;-2.70;98.60
30174;DHT22;16985;50.814;8.530;2023-03-01T03:51:14;-2.80;98.80
30174;DHT22;16985;50.814;8.530;2023-03-01T03:53:42;-2.80;98.90
30174;DHT22;16985;50.814;8.530;2023-03-01T03:56:09;-2.80;98.90
30174;DHT22;16985;50.814;8.530;2023-03-01T03:58:35;-2.80;98.60
30174;DHT22;16985;50.814;8.530;2023-03-01T04:01:02;-2.80;98.50
30174;DHT22;16985;50.814;8.530;2023-03-01T04:03:29;-2.80;98.70
30174;DHT22;16985;50.814;8.530;2023-03-01T04:05:58;-2.80;98.50
30174;DHT22;16985;50.814;8.530;2023-03-01T04:08:24;-2.80;98.40
30174;DHT22;16985;50.814;8.530;2023-03-01T04:10:53;-2.80;98.30
30174;DHT22;16985;50.814;8.530;2023-03-01T04:13:23;-2.90;98.40
30174;DHT22;16985;50.814;8.530;2023-03-01T04:15:54;-2.90;98.40
30174;DHT22;16985;50.814;8.530;2023-03-01T04:18:21;-2.90;98.50
30174;DHT22;16985;50.814;8.530;2023-03-01T04:20:48;-2.90;98.50
30174;DHT22;16985;50.814;8.530;2023-03-01T04:23:18;-2.00;99.00
30174;DHT22;16985;50.814;8.530;2023-03-01T04:28:19;-3.00;99.20
30174;DHT22;16985;50.814;8.530;2023-03-01T04:30:46;-3.00;99.40
30174;DHT22;16985;50.814;8.530;2023-03-01T04:33:12;-3.00;99.70
30174;DHT22;16985;50.814;8.530;2023-03-01T04:35:38;-3.00;99.90
30174;DHT22;16985;50.814;8.530;2023-03-01T04:38:05;-3.00;99.90
30174;DHT22;16985;50.814;8.530;2023-03-01T04:40:32;-3.10;99.90
30174;DHT22;16985;50.814;8.530;2023-03-01T04:42:58;-3.10;99.90
30174;DHT22;16985;50.814;8.530;2023-03-01T04:45:24;-3.10;99.90
30174;DHT22;16985;50.814;8.530;2023-03-01T04:47:50;-3.10;99.90
30174;DHT22;16985;50.814;8.530;2023-03-01T04:50:18;-3.10;99.90
30174;DHT22;16985;50.814;8.530;2023-03-01T04:52:49;-3.20;99.90
30174;DHT22;16985;50.814;8.530;2023-03-01T04:55:15;-3.10;99.90
30174;DHT22;16985;50.814;8.530;2023-03-01T04:57:41;-3.20;99.50
30174;DHT22;16985;50.814;8.530;2023-03-01T05:00:10;-3.10;99.90
30174;DHT22;16985;50.814;8.530;2023-03-01T05:02:56;-3.20;99.70
30174;DHT22;16985;50.814;8.530;2023-03-01T05:05:32;-3.20;99.80
30174;DHT22;16985;50.814;8.530;2023-03-01T05:08:01;-3.20;99.90
30174;DHT22;16985;50.814;8.530;2023-03-01T05:10:31;-3.20;99.90
30174;DHT22;16985;50.814;8.530;2023-03-01T05:13:00;-3.20;99.90
30174;DHT22;16985;50.814;8.530;2023-03-01T05:15:28;-3.20;99.90
30174;DHT22;16985;50.814;8.530;2023-03-01T05:17:56;-3.30;99.90
30174;DHT22;16985;50.814;8.530;2023-03-01T05:20:25;-3.30;99.90
30174;DHT22;16985;50.814;8.530;2023-03-01T05:22:56;-3.30;99.90
30174;DHT22;16985;50.814;8.530;2023-03-01T05:25:24;-3.30;99.90
30174;DHT22;16985;50.814;8.530;2023-03-01T05:27:50;-3.30;99.90
30174;DHT22;16985;50.814;8.530;2023-03-01T05:30:16;-3.30;99.90
30174;DHT22;16985;50.814;8.530;2023-03-01T05:32:45;-3.30;99.90
30174;DHT22;16985;50.814;8.530;2023-03-01T05:35:14;-3.40;99.90
30174;DHT22;16985;50.814;8.530;2023-03-01T05:37:46;-3.40;99.90
30174;DHT22;16985;50.814;8.530;2023-03-01T05:40:19;-3.40;99.90
30174;DHT22;16985;50.814;8.530;2023-03-01T05:42:48;-3.40;99.90
30174;DHT22;16985;50.814;8.530;2023-03-01T05:45:16;-3.40;99.90
30174;DHT22;16985;50.814;8.530;2023-03-01T05:47:44;-3.40;99.90
30174;DHT22;16985;50.814;8.530;2023-03-01T05:50:19;-3.50;99.90
30174;DHT22;16985;50.814;8.530;2023-03-01T05:52:57;-3.40;99.90
30174;DHT22;16985;50.814;8.530;2023-03-01T05:55:25;-3.40;99.90
30174;DHT22;16985;50.814;8.530;2023-03-01T05:57:54;-3.40;99.90
30174;DHT22;16985;50.814;8.530;2023-03-01T06:00:21;-3.50;99.90
30174;DHT22;16985;50.814;8.530;2023-03-01T06:02:50;-3.50;99.90
30174;DHT22;16985;50.814;8.530;2023-03-01T06:05:17;-3.50;99.90
30174;DHT22;16985;50.814;8.530;2023-03-01T06:07:43;-3.50;99.90
30174;DHT22;16985;50.814;8.530;2023-03-01T06:10:10;-3.50;99.90
30174;DHT22;16985;50.814;8.530;2023-03-01T06:12:38;-3.50;99.90
30174;DHT22;16985;50.814;8.530;2023-03-01T06:15:05;-3.60;99.90
30174;DHT22;16985;50.814;8.530;2023-03-01T06:17:33;-3.50;99.90
30174;DHT22;16985;50.814;8.530;2023-03-01T06:20:04;-3.60;99.90
30174;DHT22;16985;50.814;8.530;2023-03-01T06:22:31;-3.60;99.90
30174;DHT22;16985;50.814;8.530;2023-03-01T06:24:57;-3.50;99.90
30174;DHT22;16985;50.814;8.530;2023-03-01T06:27:23;-3.50;99.90
30174;DHT22;16985;50.814;8.530;2023-03-01T06:29:49;-3.50;99.90
30174;DHT22;16985;50.814;8.530;2023-03-01T06:32:14;-3.60;99.90
30174;DHT22;16985;50.814;8.530;2023-03-01T06:34:40;-3.50;99.90
30174;DHT22;16985;50.814;8.530;2023-03-01T06:37:06;-3.50;99.90
30174;DHT22;16985;50.814;8.530;2023-03-01T06:39:33;-3.50;99.90
30174;DHT22;16985;50.814;8.530;2023-03-01T06:41:59;-3.50;99.90
30174;DHT22;16985;50.814;8.530;2023-03-01T06:44:25;-3.50;99.90
30174;DHT22;16985;50.814;8.530;2023-03-01T06:46:52;-3.50;99.90
30174;DHT22;16985;50.814;8.530;2023-03-01T06:49:18;-3.50;99.90
30174;DHT22;16985;50.814;8.530;2023-03-01T06:51:45;-3.40;99.90
30174;DHT22;16985;50.814;8.530;2023-03-01T06:54:11;-3.40;99.90
30174;DHT22;16985;50.814;8.530;2023-03-01T06:56:40;-3.40;99.90
30174;DHT22;16985;50.814;8.530;2023-03-01T06:59:06;-3.30;99.90
30174;DHT22;16985;50.814;8.530;2023-03-01T07:01:41;-2.60;99.90
30174;DHT22;16985;50.814;8.530;2023-03-01T07:04:07;-3.30;99.90
30174;DHT22;16985;50.814;8.530;2023-03-01T07:06:33;-3.30;99.90
30174;DHT22;16985;50.814;8.530;2023-03-01T07:08:59;-3.20;99.90
30174;DHT22;16985;50.814;8.530;2023-03-01T07:11:25;-3.20;99.90
30174;DHT22;16985;50.814;8.530;2023-03-01T07:13:51;-3.20;99.90
30174;DHT22;16985;50.814;8.530;2023-03-01T07:16:16;-3.10;99.90
30174;DHT22;16985;50.814;8.530;2023-03-01T07:18:42;-3.10;99.90
30174;DHT22;16985;50.814;8.530;2023-03-01T07:21:10;-3.00;99.90
30174;DHT22;16985;50.814;8.530;2023-03-01T07:23:37;-2.90;99.90
30174;DHT22;16985;50.814;8.530;2023-03-01T07:26:03;-2.90;99.90
30174;DHT22;16985;50.814;8.530;2023-03-01T07:28:30;-2.80;99.90
30174;DHT22;16985;50.814;8.530;2023-03-01T07:31:01;-2.70;99.90
30174;DHT22;16985;50.814;8.530;2023-03-01T07:33:27;-2.70;99.90
30174;DHT22;16985;50.814;8.530;2023-03-01T07:36:00;-2.60;99.90
30174;DHT22;16985;50.814;8.530;2023-03-01T07:38:27;-2.60;99.90
30174;DHT22;16985;50.814;8.530;2023-03-01T07:40:57;-2.50;99.90
30174;DHT22;16985;50.814;8.530;2023-03-01T07:43:24;-2.50;99.90
30174;DHT22;16985;50.814;8.530;2023-03-01T07:45:50;-2.40;99.90
30174;DHT22;16985;50.814;8.530;2023-03-01T07:48:15;-2.30;99.90
30174;DHT22;16985;50.814;8.530;2023-03-01T07:50:41;-2.30;99.90
30174;DHT22;16985;50.814;8.530;2023-03-01T07:53:08;-2.20;99.90
30174;DHT22;16985;50.814;8.530;2023-03-01T07:55:34;-2.20;99.90
30174;DHT22;16985;50.814;8.530;2023-03-01T07:58:00;-2.10;99.90
30174;DHT22;16985;50.814;8.530;2023-03-01T08:00:26;-2.00;99.90
30174;DHT22;16985;50.814;8.530;2023-03-01T08:02:51;-2.00;99.90
30174;DHT22;16985;50.814;8.530;2023-03-01T08:05:17;-1.90;99.90
30174;DHT22;16985;50.814;8.530;2023-03-01T08:07:43;-1.80;99.90
30174;DHT22;16985;50.814;8.530;2023-03-01T08:10:10;-1.80;99.90
30174;DHT22;16985;50.814;8.530;2023-03-01T08:12:36;-1.70;99.90
30174;DHT22;16985;50.814;8.530;2023-03-01T08:15:02;-1.60;99.90
30174;DHT22;16985;50.814;8.530;2023-03-01T08:17:28;-1.60;99.90
30174;DHT22;16985;50.814;8.530;2023-03-01T08:19:54;-1.50;99.90
30174;DHT22;16985;50.814;8.530;2023-03-01T08:22:20;-1.40;99.90
30174;DHT22;16985;50.814;8.530;2023-03-01T08:24:46;-1.30;99.90
30174;DHT22;16985;50.814;8.530;2023-03-01T08:27:12;-1.30;99.90
30174;DHT22;16985;50.814;8.530;2023-03-01T08:29:38;-1.20;99.90
30174;DHT22;16985;50.814;8.530;2023-03-01T08:32:04;-1.20;99.90
30174;DHT22;16985;50.814;8.530;2023-03-01T08:34:30;-1.10;99.90
30174;DHT22;16985;50.814;8.530;2023-03-01T08:36:57;-1.00;99.90
30174;DHT22;16985;50.814;8.530;2023-03-01T08:39:23;-0.90;99.90
30174;DHT22;16985;50.814;8.530;2023-03-01T08:41:49;-0.90;99.90
30174;DHT22;16985;50.814;8.530;2023-03-01T08:44:15;-0.70;99.90
30174;DHT22;16985;50.814;8.530;2023-03-01T08:46:46;-0.70;99.90
30174;DHT22;16985;50.814;8.530;2023-03-01T08:49:18;-0.60;99.90
30174;DHT22;16985;50.814;8.530;2023-03-01T08:51:45;-0.50;99.90
30174;DHT22;16985;50.814;8.530;2023-03-01T08:54:13;-0.50;99.90
30174;DHT22;16985;50.814;8.530;2023-03-01T08:56:44;-0.40;99.90
30174;DHT22;16985;50.814;8.530;2023-03-01T08:59:11;-0.30;99.90
30174;DHT22;16985;50.814;8.530;2023-03-01T09:01:38;-0.20;99.90
30174;DHT22;16985;50.814;8.530;2023-03-01T09:04:05;-0.20;99.90
30174;DHT22;16985;50.814;8.530;2023-03-01T09:06:33;0.00;99.90
30174;DHT22;16985;50.814;8.530;2023-03-01T09:09:00;0.00;99.70
30174;DHT22;16985;50.814;8.530;2023-03-01T09:11:30;0.10;99.40
30174;DHT22;16985;50.814;8.530;2023-03-01T09:13:56;0.20;99.20
30174;DHT22;16985;50.814;8.530;2023-03-01T09:16:23;0.20;98.60
30174;DHT22;16985;50.814;8.530;2023-03-01T09:18:53;0.30;98.40
30174;DHT22;16985;50.814;8.530;2023-03-01T09:21:21;0.40;98.00
30174;DHT22;16985;50.814;8.530;2023-03-01T09:23:48;0.50;97.60
30174;DHT22;16985;50.814;8.530;2023-03-01T09:26:20;0.50;97.10
30174;DHT22;16985;50.814;8.530;2023-03-01T09:28:48;0.50;96.90
30174;DHT22;16985;50.814;8.530;2023-03-01T09:31:17;0.70;96.80
30174;DHT22;16985;50.814;8.530;2023-03-01T09:33:46;0.70;96.80
30174;DHT22;16985;50.814;8.530;2023-03-01T09:36:15;0.80;96.70
30174;DHT22;16985;50.814;8.530;2023-03-01T09:38:43;1.00;96.50
30174;DHT22;16985;50.814;8.530;2023-03-01T09:47:23;1.20;95.20
30174;DHT22;16985;50.814;8.530;2023-03-01T09:50:15;1.40;95.00
30174;DHT22;16985;50.814;8.530;2023-03-01T09:52:54;1.50;94.80
30174;DHT22;16985;50.814;8.530;2023-03-01T10:02:21;1.80;94.00
30174;DHT22;16985;50.814;8.530;2023-03-01T10:10:52;2.20;92.40
30174;DHT22;16985;50.814;8.530;2023-03-01T10:15:53;2.50;91.80
30174;DHT22;16985;50.814;8.530;2023-03-01T10:18:26;2.60;91.70
30174;DHT22;16985;50.814;8.530;2023-03-01T10:20:54;2.70;91.40
30174;DHT22;16985;50.814;8.530;2023-03-01T10:23:24;2.80;90.90
30174;DHT22;16985;50.814;8.530;2023-03-01T10:31:14;3.10;90.00
30174;DHT22;16985;50.814;8.530;2023-03-01T10:33:41;3.20;89.00
30174;DHT22;16985;50.814;8.530;2023-03-01T10:36:08;3.30;88.20
30174;DHT22;16985;50.814;8.530;2023-03-01T10:41:18;3.50;86.80
30174;DHT22;16985;50.814;8.530;2023-03-01T10:43:55;3.60;85.90
30174;DHT22;16985;50.814;8.530;2023-03-01T10:49:22;3.80;85.30
30174;DHT22;16985;50.814;8.530;2023-03-01T10:51:50;3.90;85.30
30174;DHT22;16985;50.814;8.530;2023-03-01T10:54:32;4.00;85.00
30174;DHT22;16985;50.814;8.530;2023-03-01T10:57:03;4.20;84.20
30174;DHT22;16985;50.814;8.530;2023-03-01T10:59:36;4.20;83.20
30174;DHT22;16985;50.814;8.530;2023-03-01T11:04:35;4.50;81.10
30174;DHT22;16985;50.814;8.530;2023-03-01T11:07:02;4.50;80.50
30174;DHT22;16985;50.814;8.530;2023-03-01T11:09:32;4.60;79.90
30174;DHT22;16985;50.814;8.530;2023-03-01T11:12:11;5.20;79.80
30174;DHT22;16985;50.814;8.530;2023-03-01T11:14:49;4.80;79.60
30174;DHT22;16985;50.814;8.530;2023-03-01T11:17:30;5.00;79.80
30174;DHT22;16985;50.814;8.530;2023-03-01T11:22:49;5.50;81.10
30174;DHT22;16985;50.814;8.530;2023-03-01T11:25:20;5.70;80.90
30174;DHT22;16985;50.814;8.530;2023-03-01T11:27:50;6.10;79.90
30174;DHT22;16985;50.814;8.530;2023-03-01T11:30:24;6.40;78.70
30174;DHT22;16985;50.814;8.530;2023-03-01T11:33:10;6.60;77.70
30174;DHT22;16985;50.814;8.530;2023-03-01T11:36:03;6.90;76.30
30174;DHT22;16985;50.814;8.530;2023-03-01T11:38:35;7.10;74.00
30174;DHT22;16985;50.814;8.530;2023-03-01T11:41:19;7.30;72.70
30174;DHT22;16985;50.814;8.530;2023-03-01T11:43:56;7.50;72.20
30174;DHT22;16985;50.814;8.530;2023-03-01T11:52:48;8.00;71.40
30174;DHT22;16985;50.814;8.530;2023-03-01T12:06:35;8.80;69.50
30174;DHT22;16985;50.814;8.530;2023-03-01T12:12:22;9.00;67.40
30174;DHT22;16985;50.814;8.530;2023-03-01T12:20:47;9.30;66.80
30174;DHT22;16985;50.814;8.530;2023-03-01T12:26:31;9.40;65.70
30174;DHT22;16985;50.814;8.530;2023-03-01T12:35:16;9.70;64.60
30174;DHT22;16985;50.814;8.530;2023-03-01T12:44:17;10.10;64.30
30174;DHT22;16985;50.814;8.530;2023-03-01T12:49:59;10.20;61.20
30174;DHT22;16985;50.814;8.530;2023-03-01T12:52:48;10.30;61.40
30174;DHT22;16985;50.814;8.530;2023-03-01T12:55:35;10.40;60.90
30174;DHT22;16985;50.814;8.530;2023-03-01T12:58:21;10.50;61.90
30174;DHT22;16985;50.814;8.530;2023-03-01T13:01:26;10.60;60.00
30174;DHT22;16985;50.814;8.530;2023-03-01T13:04:29;10.60;59.70
30174;DHT22;16985;50.814;8.530;2023-03-01T13:07:25;10.60;59.40
30174;DHT22;16985;50.814;8.530;2023-03-01T13:13:26;10.60;59.10
30174;DHT22;16985;50.814;8.530;2023-03-01T13:15:54;10.80;59.40
30174;DHT22;16985;50.814;8.530;2023-03-01T13:20:49;10.90;58.90
30174;DHT22;16985;50.814;8.530;2023-03-01T13:33:50;11.20;57.90
30174;DHT22;16985;50.814;8.530;2023-03-01T13:39:25;11.30;57.40
30174;DHT22;16985;50.814;8.530;2023-03-01T13:41:59;11.20;57.20
30174;DHT22;16985;50.814;8.530;2023-03-01T13:47:16;11.20;57.60
30174;DHT22;16985;50.814;8.530;2023-03-01T13:52:43;11.30;56.80
30174;DHT22;16985;50.814;8.530;2023-03-01T13:57:39;11.30;56.40
30174;DHT22;16985;50.814;8.530;2023-03-01T14:00:24;11.30;55.90
30174;DHT22;16985;50.814;8.530;2023-03-01T14:03:11;11.30;55.90
30174;DHT22;16985;50.814;8.530;2023-03-01T14:05:39;11.20;55.10
30174;DHT22;16985;50.814;8.530;2023-03-01T14:08:19;11.20;54.70
30174;DHT22;16985;50.814;8.530;2023-03-01T14:11:05;11.10;54.40
30174;DHT22;16985;50.814;8.530;2023-03-01T14:19:59;11.20;55.80
30174;DHT22;16985;50.814;8.530;2023-03-01T14:22:28;11.20;55.10
30174;DHT22;16985;50.814;8.530;2023-03-01T14:24:58;11.10;54.60
30174;DHT22;16985;50.814;8.530;2023-03-01T14:27:32;11.00;54.10
30174;DHT22;16985;50.814;8.530;2023-03-01T14:30:26;10.90;54.70
30174;DHT22;16985;50.814;8.530;2023-03-01T14:32:56;10.80;54.90
30174;DHT22;16985;50.814;8.530;2023-03-01T14:35:34;10.80;55.50
30174;DHT22;16985;50.814;8.530;2023-03-01T14:38:01;10.90;56.20
30174;DHT22;16985;50.814;8.530;2023-03-01T14:40:36;10.90;56.30
30174;DHT22;16985;50.814;8.530;2023-03-01T14:43:09;10.90;56.00
30174;DHT22;16985;50.814;8.530;2023-03-01T14:45:39;10.90;55.70
30174;DHT22;16985;50.814;8.530;2023-03-01T14:48:12;10.70;55.80
30174;DHT22;16985;50.814;8.530;2023-03-01T14:50:42;10.70;56.30
30174;DHT22;16985;50.814;8.530;2023-03-01T14:53:21;10.70;56.70
30174;DHT22;16985;50.814;8.530;2023-03-01T14:55:55;10.70;56.80
30174;DHT22;16985;50.814;8.530;2023-03-01T14:58:25;10.70;56.60
30174;DHT22;16985;50.814;8.530;2023-03-01T15:00:55;10.50;56.40
30174;DHT22;16985;50.814;8.530;2023-03-01T15:03:46;10.50;56.90
30174;DHT22;16985;50.814;8.530;2023-03-01T15:06:16;10.40;56.50
30174;DHT22;16985;50.814;8.530;2023-03-01T15:08:47;10.30;56.30
30174;DHT22;16985;50.814;8.530;2023-03-01T15:11:21;10.10;56.20
30174;DHT22;16985;50.814;8.530;2023-03-01T15:13:51;10.00;56.60
30174;DHT22;16985;50.814;8.530;2023-03-01T15:16:39;9.90;56.90
30174;DHT22;16985;50.814;8.530;2023-03-01T15:19:07;9.80;57.30
30174;DHT22;16985;50.814;8.530;2023-03-01T15:21:35;9.70;57.20
30174;DHT22;16985;50.814;8.530;2023-03-01T15:26:40;9.50;57.60
30174;DHT22;16985;50.814;8.530;2023-03-01T15:29:16;9.40;57.80
30174;DHT22;16985;50.814;8.530;2023-03-01T15:31:54;9.30;58.10
30174;DHT22;16985;50.814;8.530;2023-03-01T15:34:23;9.30;58.20
30174;DHT22;16985;50.814;8.530;2023-03-01T15:36:54;9.20;58.40
30174;DHT22;16985;50.814;8.530;2023-03-01T15:39:35;9.10;58.30
30174;DHT22;16985;50.814;8.530;2023-03-01T15:42:13;9.00;58.50
30174;DHT22;16985;50.814;8.530;2023-03-01T15:47:46;8.70;59.10
30174;DHT22;16985;50.814;8.530;2023-03-01T15:50:33;8.60;59.20
30174;DHT22;16985;50.814;8.530;2023-03-01T15:53:03;8.40;59.50
30174;DHT22;16985;50.814;8.530;2023-03-01T15:55:32;8.30;59.80
30174;DHT22;16985;50.814;8.530;2023-03-01T15:58:00;8.10;60.30
30174;DHT22;16985;50.814;8.530;2023-03-01T16:00:38;7.90;60.50
30174;DHT22;16985;50.814;8.530;2023-03-01T16:03:06;7.70;60.80
30174;DHT22;16985;50.814;8.530;2023-03-01T16:05:35;7.60;61.20
30174;DHT22;16985;50.814;8.530;2023-03-01T16:08:02;7.40;61.40
30174;DHT22;16985;50.814;8.530;2023-03-01T16:10:29;7.30;62.10
30174;DHT22;16985;50.814;8.530;2023-03-01T16:12:56;7.10;62.30
30174;DHT22;16985;50.814;8.530;2023-03-01T16:15:28;7.00;62.70
30174;DHT22;16985;50.814;8.530;2023-03-01T16:17:55;6.90;63.30
30174;DHT22;16985;50.814;8.530;2023-03-01T16:20:24;6.80;63.90
30174;DHT22;16985;50.814;8.530;2023-03-01T16:22:50;6.70;64.00
30174;DHT22;16985;50.814;8.530;2023-03-01T16:25:18;6.60;64.30
30174;DHT22;16985;50.814;8.530;2023-03-01T16:27:46;6.50;64.20
30174;DHT22;16985;50.814;8.530;2023-03-01T16:30:15;6.40;64.50
30174;DHT22;16985;50.814;8.530;2023-03-01T16:32:45;6.30;64.60
30174;DHT22;16985;50.814;8.530;2023-03-01T16:35:13;6.20;65.00
30174;DHT22;16985;50.814;8.530;2023-03-01T16:37:40;6.10;65.50
30174;DHT22;16985;50.814;8.530;2023-03-01T16:40:16;6.10;65.30
30174;DHT22;16985;50.814;8.530;2023-03-01T16:42:44;6.00;65.30
30174;DHT22;16985;50.814;8.530;2023-03-01T16:45:10;5.90;65.70
30174;DHT22;16985;50.814;8.530;2023-03-01T16:47:36;5.80;65.90
30174;DHT22;16985;50.814;8.530;2023-03-01T16:50:02;5.70;65.90
30174;DHT22;16985;50.814;8.530;2023-03-01T16:52:28;5.70;65.90
30174;DHT22;16985;50.814;8.530;2023-03-01T16:54:54;5.60;66.60
30174;DHT22;16985;50.814;8.530;2023-03-01T16:57:20;5.50;66.30
30174;DHT22;16985;50.814;8.530;2023-03-01T16:59:45;5.50;66.40
30174;DHT22;16985;50.814;8.530;2023-03-01T17:02:14;5.40;66.70
30174;DHT22;16985;50.814;8.530;2023-03-01T17:04:51;5.40;67.00
30174;DHT22;16985;50.814;8.530;2023-03-01T17:07:18;5.30;66.40
30174;DHT22;16985;50.814;8.530;2023-03-01T17:09:44;5.30;66.90
30174;DHT22;16985;50.814;8.530;2023-03-01T17:12:12;4.60;66.20
30174;DHT22;16985;50.814;8.530;2023-03-01T17:14:38;5.20;66.90
30174;DHT22;16985;50.814;8.530;2023-03-01T17:17:07;5.20;67.20
30174;DHT22;16985;50.814;8.530;2023-03-01T17:19:34;5.10;66.90
30174;DHT22;16985;50.814;8.530;2023-03-01T17:22:02;5.10;67.10
30174;DHT22;16985;50.814;8.530;2023-03-01T17:24:28;5.00;67.30
30174;DHT22;16985;50.814;8.530;2023-03-01T17:26:58;5.00;67.50
30174;DHT22;16985;50.814;8.530;2023-03-01T17:29:23;4.90;67.10
30174;DHT22;16985;50.814;8.530;2023-03-01T17:31:49;4.90;67.20
30174;DHT22;16985;50.814;8.530;2023-03-01T17:34:15;4.80;67.00
30174;DHT22;16985;50.814;8.530;2023-03-01T17:36:41;4.70;67.10
30174;DHT22;16985;50.814;8.530;2023-03-01T17:39:09;4.70;67.20
30174;DHT22;16985;50.814;8.530;2023-03-01T17:41:35;4.60;67.40
30174;DHT22;16985;50.814;8.530;2023-03-01T17:44:01;4.60;67.70
30174;DHT22;16985;50.814;8.530;2023-03-01T17:46:27;4.60;68.30
30174;DHT22;16985;50.814;8.530;2023-03-01T17:48:53;4.50;68.60
30174;DHT22;16985;50.814;8.530;2023-03-01T17:51:19;4.50;68.70
30174;DHT22;16985;50.814;8.530;2023-03-01T17:53:45;4.40;68.80
30174;DHT22;16985;50.814;8.530;2023-03-01T17:56:11;4.40;69.10
30174;DHT22;16985;50.814;8.530;2023-03-01T17:58:37;4.30;69.30
30174;DHT22;16985;50.814;8.530;2023-03-01T18:01:12;4.30;69.80
30174;DHT22;16985;50.814;8.530;2023-03-01T18:03:41;4.20;70.10
30174;DHT22;16985;50.814;8.530;2023-03-01T18:06:15;4.10;70.50
30174;DHT22;16985;50.814;8.530;2023-03-01T18:08:42;4.10;70.80
30174;DHT22;16985;50.814;8.530;2023-03-01T18:11:10;4.00;71.20
30174;DHT22;16985;50.814;8.530;2023-03-01T18:13:37;4.00;71.40